BCS544 LOWW-EDDP
Flight info
| Callsign | BCS544 |
|---|---|
| Flight time | N/A |
| Altitude | 30000 |
| Route | LANUX DCT VLM DCT BEFRE DCT IVQOQ T951 YAWOY YAWOY1V |
| Aircraft | B752/M-SDE2E3FGHIJ3J4J7RWXY/LB1 |
Departure
| Time | 2026-04-20 12:23 |
|---|---|
| Airport | Vienna International Airport (LOWW) |
Arrival
| Time | N/A |
|---|---|
| Airport | Leipzig/Halle Airport (EDDP) |
| Time | Latitude | Longitude | Altitude | Speed | Heading |
|---|---|---|---|---|---|
| 2026-04-20 11:51 | 48.12221 | 16.54738 | 577 ft | 0 kts | 26° |
| 2026-04-20 12:08 | 48.12220 | 16.54738 | 577 ft | 0 kts | 26° |
| 2026-04-20 12:11 | 48.12210 | 16.54730 | 577 ft | 2 kts | 24° |
| 2026-04-20 12:11 | 48.12196 | 16.54721 | 577 ft | 2 kts | 27° |
| 2026-04-20 12:11 | 48.12183 | 16.54711 | 577 ft | 2 kts | 26° |
| 2026-04-20 12:11 | 48.12169 | 16.54701 | 578 ft | 2 kts | 26° |
| 2026-04-20 12:12 | 48.12156 | 16.54691 | 578 ft | 2 kts | 26° |
| 2026-04-20 12:12 | 48.12146 | 16.54676 | 578 ft | 2 kts | 68° |
| 2026-04-20 12:12 | 48.12144 | 16.54654 | 578 ft | 2 kts | 104° |
| 2026-04-20 12:12 | 48.12147 | 16.54645 | 578 ft | 1 kts | 120° |
| 2026-04-20 12:13 | 48.12148 | 16.54641 | 577 ft | 0 kts | 116° |
| 2026-04-20 12:17 | 48.12148 | 16.54642 | 577 ft | 0 kts | 116° |
| 2026-04-20 12:17 | 48.12134 | 16.54685 | 578 ft | 10 kts | 116° |
| 2026-04-20 12:17 | 48.12107 | 16.54765 | 579 ft | 12 kts | 115° |
| 2026-04-20 12:17 | 48.12044 | 16.54958 | 580 ft | 22 kts | 116° |
| 2026-04-20 12:18 | 48.11971 | 16.55179 | 584 ft | 28 kts | 117° |
| 2026-04-20 12:18 | 48.11798 | 16.55752 | 584 ft | 49 kts | 116° |
| 2026-04-20 12:18 | 48.11755 | 16.55879 | 585 ft | 10 kts | 119° |
| 2026-04-20 12:18 | 48.11716 | 16.55999 | 587 ft | 21 kts | 116° |
| 2026-04-20 12:19 | 48.11603 | 16.56343 | 595 ft | 39 kts | 116° |
| 2026-04-20 12:19 | 48.11471 | 16.56753 | 605 ft | 46 kts | 115° |
| 2026-04-20 12:19 | 48.11359 | 16.57061 | 607 ft | 8 kts | 165° |
| 2026-04-20 12:19 | 48.11305 | 16.57067 | 607 ft | 5 kts | 161° |
| 2026-04-20 12:20 | 48.11257 | 16.57138 | 606 ft | 17 kts | 120° |
| 2026-04-20 12:20 | 48.11176 | 16.57377 | 603 ft | 33 kts | 114° |
| 2026-04-20 12:20 | 48.11118 | 16.57530 | 600 ft | 4 kts | 156° |
| 2026-04-20 12:20 | 48.11084 | 16.57532 | 601 ft | 2 kts | 182° |
| 2026-04-20 12:21 | 48.11079 | 16.57532 | 601 ft | 0 kts | 182° |
| 2026-04-20 12:21 | 48.11078 | 16.57532 | 601 ft | 1 kts | 182° |
| 2026-04-20 12:21 | 48.11051 | 16.57513 | 601 ft | 11 kts | 208° |
| 2026-04-20 12:21 | 48.10971 | 16.57443 | 602 ft | 1 kts | 228° |
| 2026-04-20 12:22 | 48.10962 | 16.57387 | 604 ft | 12 kts | 261° |
| 2026-04-20 12:22 | 48.10976 | 16.57340 | 604 ft | 6 kts | 302° |
| 2026-04-20 12:22 | 48.11038 | 16.57157 | 607 ft | 40 kts | 297° |
| 2026-04-20 12:22 | 48.11259 | 16.56482 | 599 ft | 104 kts | 296° |
| 2026-04-20 12:23 | 48.11664 | 16.55218 | 608 ft | 160 kts | 298° |
| 2026-04-20 12:23 | 48.12105 | 16.53772 | 1436 ft | 146 kts | 284° |
| 2026-04-20 12:23 | 48.12148 | 16.52252 | 2052 ft | 156 kts | 265° |
| 2026-04-20 12:23 | 48.11969 | 16.50699 | 2966 ft | 141 kts | 264° |
| 2026-04-20 12:24 | 48.11788 | 16.49232 | 3522 ft | 150 kts | 265° |
| 2026-04-20 12:24 | 48.11611 | 16.47727 | 4035 ft | 148 kts | 271° |
| 2026-04-20 12:24 | 48.11705 | 16.46136 | 4178 ft | 162 kts | 283° |
| 2026-04-20 12:24 | 48.11894 | 16.44397 | 4419 ft | 177 kts | 281° |
| 2026-04-20 12:25 | 48.12065 | 16.42715 | 4625 ft | 192 kts | 281° |
| 2026-04-20 12:25 | 48.12283 | 16.40626 | 4858 ft | 212 kts | 281° |
| 2026-04-20 12:25 | 48.12522 | 16.38330 | 5211 ft | 228 kts | 281° |
| 2026-04-20 12:25 | 48.12775 | 16.35901 | 5582 ft | 245 kts | 281° |
| 2026-04-20 12:26 | 48.13044 | 16.33321 | 6178 ft | 252 kts | 280° |
| 2026-04-20 12:26 | 48.13264 | 16.31207 | 6769 ft | 254 kts | 280° |
| 2026-04-20 12:26 | 48.13712 | 16.26907 | 8077 ft | 254 kts | 280° |
| 2026-04-20 12:27 | 48.13996 | 16.24179 | 8863 ft | 255 kts | 279° |
| 2026-04-20 12:27 | 48.14526 | 16.21689 | 9559 ft | 257 kts | 302° |
| 2026-04-20 12:27 | 48.15804 | 16.19836 | 10233 ft | 265 kts | 326° |
| 2026-04-20 12:27 | 48.17451 | 16.18524 | 10587 ft | 282 kts | 328° |
| 2026-04-20 12:28 | 48.19175 | 16.17182 | 10796 ft | 302 kts | 329° |
| 2026-04-20 12:28 | 48.21129 | 16.15696 | 11052 ft | 321 kts | 329° |
| 2026-04-20 12:28 | 48.23212 | 16.14131 | 11318 ft | 340 kts | 330° |
| 2026-04-20 12:28 | 48.25357 | 16.12531 | 11867 ft | 348 kts | 330° |
| 2026-04-20 12:29 | 48.27521 | 16.10923 | 12621 ft | 351 kts | 330° |
| 2026-04-20 12:29 | 48.29742 | 16.09270 | 13293 ft | 354 kts | 330° |
| 2026-04-20 12:29 | 48.31964 | 16.07618 | 13964 ft | 358 kts | 330° |
| 2026-04-20 12:29 | 48.34213 | 16.05944 | 14599 ft | 362 kts | 330° |
| 2026-04-20 12:30 | 48.36463 | 16.04269 | 15241 ft | 364 kts | 330° |
| 2026-04-20 12:30 | 48.38751 | 16.02564 | 15817 ft | 368 kts | 330° |
| 2026-04-20 12:30 | 48.41064 | 16.00838 | 16397 ft | 371 kts | 330° |
| 2026-04-20 12:30 | 48.43360 | 15.99124 | 16982 ft | 373 kts | 330° |
| 2026-04-20 12:31 | 48.45707 | 15.97368 | 17513 ft | 377 kts | 330° |
| 2026-04-20 12:31 | 48.48068 | 15.95601 | 18047 ft | 380 kts | 330° |
| 2026-04-20 12:31 | 48.50340 | 15.93899 | 18614 ft | 381 kts | 330° |
| 2026-04-20 12:31 | 48.52743 | 15.92097 | 19075 ft | 386 kts | 330° |
| 2026-04-20 12:32 | 48.55125 | 15.90308 | 19622 ft | 388 kts | 330° |
| 2026-04-20 12:32 | 48.57092 | 15.88820 | 20034 ft | 389 kts | 329° |
| 2026-04-20 12:32 | 48.60242 | 15.86141 | 20679 ft | 392 kts | 327° |
| 2026-04-20 12:32 | 48.62243 | 15.84432 | 21094 ft | 394 kts | 327° |